Terminal Aerodrome Forecast
Issued by NWS

Home | Current Version | Previous Version | Text Only | Print | Product List | Glossary Off
Versions: 1 2 3 4 5 6 7 8 9 10 11 12 13 14 15

000
FTUS43 KICT 270931 AAA
TAFSLN
TAF AMD
KSLN 270931Z 2710/2806 13011KT P6SM VCTS BKN060CB
      TEMPO 2710/2712 VRB25G35KT 4SM TSRA BR BKN035CB
     FM271400 09005KT P6SM BKN060
     FM271900 35018G27KT P6SM VCSH BKN020=

USA.gov is the U.S. government's official web portal to all federal, state and local government web resources and services.